sensor_id;sensor_type;location;lat;lon;timestamp;P1;durP1;ratioP1;P2;durP2;ratioP2
3052;SDS011;1536;51.098;6.414;2024-03-25T00:01:48;17.92;;;6.45;;
3052;SDS011;1536;51.098;6.414;2024-03-25T00:04:15;13.18;;;5.05;;
3052;SDS011;1536;51.098;6.414;2024-03-25T00:06:41;21.10;;;5.57;;
3052;SDS011;1536;51.098;6.414;2024-03-25T00:09:08;8.60;;;4.90;;
3052;SDS011;1536;51.098;6.414;2024-03-25T00:11:39;16.95;;;4.20;;
3052;SDS011;1536;51.098;6.414;2024-03-25T00:14:06;11.40;;;5.82;;
3052;SDS011;1536;51.098;6.414;2024-03-25T00:16:32;10.97;;;5.17;;
3052;SDS011;1536;51.098;6.414;2024-03-25T00:19:00;9.45;;;4.50;;
3052;SDS011;1536;51.098;6.414;2024-03-25T00:21:26;9.13;;;4.15;;
3052;SDS011;1536;51.098;6.414;2024-03-25T00:23:53;13.10;;;4.75;;
3052;SDS011;1536;51.098;6.414;2024-03-25T00:26:21;13.18;;;4.57;;
3052;SDS011;1536;51.098;6.414;2024-03-25T00:28:48;13.20;;;5.05;;
3052;SDS011;1536;51.098;6.414;2024-03-25T00:31:14;8.93;;;5.07;;
3052;SDS011;1536;51.098;6.414;2024-03-25T00:33:41;10.55;;;4.40;;
3052;SDS011;1536;51.098;6.414;2024-03-25T00:36:08;16.30;;;5.00;;
3052;SDS011;1536;51.098;6.414;2024-03-25T00:38:35;17.30;;;6.57;;
3052;SDS011;1536;51.098;6.414;2024-03-25T00:41:01;12.47;;;4.50;;
3052;SDS011;1536;51.098;6.414;2024-03-25T00:43:28;16.02;;;5.95;;
3052;SDS011;1536;51.098;6.414;2024-03-25T00:45:54;9.23;;;4.63;;
3052;SDS011;1536;51.098;6.414;2024-03-25T00:48:21;10.10;;;4.78;;
3052;SDS011;1536;51.098;6.414;2024-03-25T00:50:47;10.77;;;5.55;;
3052;SDS011;1536;51.098;6.414;2024-03-25T00:53:16;11.43;;;5.55;;
3052;SDS011;1536;51.098;6.414;2024-03-25T00:55:43;12.63;;;4.70;;
3052;SDS011;1536;51.098;6.414;2024-03-25T00:58:10;17.30;;;5.93;;
3052;SDS011;1536;51.098;6.414;2024-03-25T01:00:36;15.20;;;5.80;;
3052;SDS011;1536;51.098;6.414;2024-03-25T01:03:03;11.73;;;5.55;;
3052;SDS011;1536;51.098;6.414;2024-03-25T01:05:29;12.82;;;5.18;;
3052;SDS011;1536;51.098;6.414;2024-03-25T01:07:56;13.38;;;4.78;;
3052;SDS011;1536;51.098;6.414;2024-03-25T01:10:24;11.27;;;4.63;;
3052;SDS011;1536;51.098;6.414;2024-03-25T01:12:51;13.93;;;5.80;;
3052;SDS011;1536;51.098;6.414;2024-03-25T01:15:17;12.97;;;5.23;;
3052;SDS011;1536;51.098;6.414;2024-03-25T01:17:44;19.05;;;5.70;;
3052;SDS011;1536;51.098;6.414;2024-03-25T01:20:10;13.10;;;4.80;;
3052;SDS011;1536;51.098;6.414;2024-03-25T01:22:37;16.42;;;5.20;;
3052;SDS011;1536;51.098;6.414;2024-03-25T01:25:03;12.50;;;6.07;;
3052;SDS011;1536;51.098;6.414;2024-03-25T01:27:31;9.02;;;4.45;;
3052;SDS011;1536;51.098;6.414;2024-03-25T01:29:57;11.25;;;4.85;;
3052;SDS011;1536;51.098;6.414;2024-03-25T01:32:25;13.82;;;5.03;;
3052;SDS011;1536;51.098;6.414;2024-03-25T01:34:51;13.23;;;5.73;;
3052;SDS011;1536;51.098;6.414;2024-03-25T01:37:18;14.10;;;6.13;;
3052;SDS011;1536;51.098;6.414;2024-03-25T01:39:44;9.80;;;3.87;;
3052;SDS011;1536;51.098;6.414;2024-03-25T01:42:10;13.07;;;5.07;;
3052;SDS011;1536;51.098;6.414;2024-03-25T01:44:38;11.20;;;5.90;;
3052;SDS011;1536;51.098;6.414;2024-03-25T01:47:05;16.45;;;5.20;;
3052;SDS011;1536;51.098;6.414;2024-03-25T01:49:32;14.40;;;4.45;;
3052;SDS011;1536;51.098;6.414;2024-03-25T01:51:59;13.88;;;5.30;;
3052;SDS011;1536;51.098;6.414;2024-03-25T01:54:25;20.92;;;5.10;;
3052;SDS011;1536;51.098;6.414;2024-03-25T01:56:52;12.98;;;5.18;;
3052;SDS011;1536;51.098;6.414;2024-03-25T01:59:20;8.30;;;4.82;;
3052;SDS011;1536;51.098;6.414;2024-03-25T02:01:49;10.15;;;4.95;;
3052;SDS011;1536;51.098;6.414;2024-03-25T02:04:15;19.00;;;6.57;;
3052;SDS011;1536;51.098;6.414;2024-03-25T02:06:43;18.48;;;5.75;;
3052;SDS011;1536;51.098;6.414;2024-03-25T02:09:10;13.95;;;5.30;;
3052;SDS011;1536;51.098;6.414;2024-03-25T02:11:39;14.63;;;5.38;;
3052;SDS011;1536;51.098;6.414;2024-03-25T02:14:06;16.10;;;5.07;;
3052;SDS011;1536;51.098;6.414;2024-03-25T02:16:33;16.52;;;6.40;;
3052;SDS011;1536;51.098;6.414;2024-03-25T02:19:01;8.13;;;4.30;;
3052;SDS011;1536;51.098;6.414;2024-03-25T02:21:28;12.77;;;5.72;;
3052;SDS011;1536;51.098;6.414;2024-03-25T02:23:55;18.55;;;5.22;;
3052;SDS011;1536;51.098;6.414;2024-03-25T02:26:26;25.17;;;7.90;;
3052;SDS011;1536;51.098;6.414;2024-03-25T02:28:53;10.02;;;5.43;;
3052;SDS011;1536;51.098;6.414;2024-03-25T02:31:20;9.60;;;4.70;;
3052;SDS011;1536;51.098;6.414;2024-03-25T02:33:45;17.30;;;5.20;;
3052;SDS011;1536;51.098;6.414;2024-03-25T02:36:12;23.75;;;6.35;;
3052;SDS011;1536;51.098;6.414;2024-03-25T02:38:38;13.67;;;7.30;;
3052;SDS011;1536;51.098;6.414;2024-03-25T02:41:05;13.27;;;5.00;;
3052;SDS011;1536;51.098;6.414;2024-03-25T02:43:32;23.20;;;5.82;;
3052;SDS011;1536;51.098;6.414;2024-03-25T02:45:59;15.55;;;5.50;;
3052;SDS011;1536;51.098;6.414;2024-03-25T02:48:25;10.50;;;4.70;;
3052;SDS011;1536;51.098;6.414;2024-03-25T02:50:52;14.90;;;5.88;;
3052;SDS011;1536;51.098;6.414;2024-03-25T02:53:18;14.40;;;5.53;;
3052;SDS011;1536;51.098;6.414;2024-03-25T02:55:45;11.82;;;4.82;;
3052;SDS011;1536;51.098;6.414;2024-03-25T02:58:27;14.38;;;5.70;;
3052;SDS011;1536;51.098;6.414;2024-03-25T03:00:54;17.50;;;6.93;;
3052;SDS011;1536;51.098;6.414;2024-03-25T03:03:21;14.45;;;6.13;;
3052;SDS011;1536;51.098;6.414;2024-03-25T03:05:47;20.73;;;5.45;;
3052;SDS011;1536;51.098;6.414;2024-03-25T03:08:14;16.77;;;6.20;;
3052;SDS011;1536;51.098;6.414;2024-03-25T03:10:40;13.23;;;5.47;;
3052;SDS011;1536;51.098;6.414;2024-03-25T03:13:21;15.25;;;5.85;;
3052;SDS011;1536;51.098;6.414;2024-03-25T03:15:48;8.55;;;5.55;;
3052;SDS011;1536;51.098;6.414;2024-03-25T03:18:15;12.47;;;5.63;;
3052;SDS011;1536;51.098;6.414;2024-03-25T03:20:42;12.57;;;6.35;;
3052;SDS011;1536;51.098;6.414;2024-03-25T03:23:07;12.03;;;5.20;;
3052;SDS011;1536;51.098;6.414;2024-03-25T03:25:34;13.35;;;5.60;;
3052;SDS011;1536;51.098;6.414;2024-03-25T03:28:00;17.60;;;6.63;;
3052;SDS011;1536;51.098;6.414;2024-03-25T03:30:27;18.55;;;6.68;;
3052;SDS011;1536;51.098;6.414;2024-03-25T03:32:53;14.47;;;5.73;;
3052;SDS011;1536;51.098;6.414;2024-03-25T03:35:21;12.20;;;7.15;;
3052;SDS011;1536;51.098;6.414;2024-03-25T03:37:47;14.63;;;6.47;;
3052;SDS011;1536;51.098;6.414;2024-03-25T03:40:14;13.88;;;6.40;;
3052;SDS011;1536;51.098;6.414;2024-03-25T03:42:40;9.48;;;5.57;;
3052;SDS011;1536;51.098;6.414;2024-03-25T03:45:07;12.93;;;5.68;;
3052;SDS011;1536;51.098;6.414;2024-03-25T03:47:33;14.02;;;5.85;;
3052;SDS011;1536;51.098;6.414;2024-03-25T03:50:00;8.70;;;5.72;;
3052;SDS011;1536;51.098;6.414;2024-03-25T03:52:27;11.43;;;5.03;;
3052;SDS011;1536;51.098;6.414;2024-03-25T03:54:54;12.15;;;5.55;;
3052;SDS011;1536;51.098;6.414;2024-03-25T03:57:20;10.60;;;7.50;;
3052;SDS011;1536;51.098;6.414;2024-03-25T03:59:47;14.07;;;6.47;;
3052;SDS011;1536;51.098;6.414;2024-03-25T04:02:13;9.13;;;4.70;;
3052;SDS011;1536;51.098;6.414;2024-03-25T04:04:40;14.23;;;5.75;;
3052;SDS011;1536;51.098;6.414;2024-03-25T04:07:06;9.50;;;4.70;;
3052;SDS011;1536;51.098;6.414;2024-03-25T04:09:34;14.63;;;5.30;;
3052;SDS011;1536;51.098;6.414;2024-03-25T04:12:00;9.15;;;5.10;;
3052;SDS011;1536;51.098;6.414;2024-03-25T04:14:27;10.18;;;5.40;;
3052;SDS011;1536;51.098;6.414;2024-03-25T04:16:52;12.83;;;5.40;;
3052;SDS011;1536;51.098;6.414;2024-03-25T04:19:19;12.82;;;6.65;;
3052;SDS011;1536;51.098;6.414;2024-03-25T04:21:48;11.80;;;5.82;;
3052;SDS011;1536;51.098;6.414;2024-03-25T04:24:15;12.52;;;5.32;;
3052;SDS011;1536;51.098;6.414;2024-03-25T04:26:43;14.05;;;6.32;;
3052;SDS011;1536;51.098;6.414;2024-03-25T04:29:10;14.65;;;5.97;;
3052;SDS011;1536;51.098;6.414;2024-03-25T04:31:36;16.47;;;5.53;;
3052;SDS011;1536;51.098;6.414;2024-03-25T04:34:05;9.70;;;5.30;;
3052;SDS011;1536;51.098;6.414;2024-03-25T04:36:31;12.80;;;4.80;;
3052;SDS011;1536;51.098;6.414;2024-03-25T04:38:58;8.63;;;5.40;;
3052;SDS011;1536;51.098;6.414;2024-03-25T04:41:24;8.30;;;5.03;;
3052;SDS011;1536;51.098;6.414;2024-03-25T04:43:51;13.70;;;6.43;;
3052;SDS011;1536;51.098;6.414;2024-03-25T04:46:17;13.65;;;6.05;;
3052;SDS011;1536;51.098;6.414;2024-03-25T04:48:43;13.50;;;5.57;;
3052;SDS011;1536;51.098;6.414;2024-03-25T04:51:09;11.83;;;6.23;;
3052;SDS011;1536;51.098;6.414;2024-03-25T04:53:35;13.30;;;6.27;;
3052;SDS011;1536;51.098;6.414;2024-03-25T04:56:01;13.47;;;5.83;;
3052;SDS011;1536;51.098;6.414;2024-03-25T04:58:26;9.67;;;5.50;;
3052;SDS011;1536;51.098;6.414;2024-03-25T05:00:54;8.10;;;4.57;;
3052;SDS011;1536;51.098;6.414;2024-03-25T05:03:20;12.50;;;5.13;;
3052;SDS011;1536;51.098;6.414;2024-03-25T05:05:45;10.23;;;4.70;;
3052;SDS011;1536;51.098;6.414;2024-03-25T05:08:11;13.37;;;6.23;;
3052;SDS011;1536;51.098;6.414;2024-03-25T05:10:37;9.50;;;5.50;;
3052;SDS011;1536;51.098;6.414;2024-03-25T05:13:03;11.40;;;6.20;;
3052;SDS011;1536;51.098;6.414;2024-03-25T05:15:29;16.20;;;5.20;;
3052;SDS011;1536;51.098;6.414;2024-03-25T05:17:56;11.50;;;5.53;;
3052;SDS011;1536;51.098;6.414;2024-03-25T05:20:22;8.75;;;5.38;;
3052;SDS011;1536;51.098;6.414;2024-03-25T05:22:48;10.10;;;5.50;;
3052;SDS011;1536;51.098;6.414;2024-03-25T05:25:14;11.50;;;5.57;;
3052;SDS011;1536;51.098;6.414;2024-03-25T05:27:40;13.40;;;5.93;;
3052;SDS011;1536;51.098;6.414;2024-03-25T05:30:06;10.20;;;5.67;;
3052;SDS011;1536;51.098;6.414;2024-03-25T05:32:32;9.40;;;5.70;;
3052;SDS011;1536;51.098;6.414;2024-03-25T05:35:00;10.02;;;5.18;;
3052;SDS011;1536;51.098;6.414;2024-03-25T05:37:26;9.63;;;4.97;;
3052;SDS011;1536;51.098;6.414;2024-03-25T05:39:52;8.77;;;5.13;;
3052;SDS011;1536;51.098;6.414;2024-03-25T05:42:18;9.60;;;6.53;;
3052;SDS011;1536;51.098;6.414;2024-03-25T05:44:44;8.53;;;5.83;;
3052;SDS011;1536;51.098;6.414;2024-03-25T05:47:10;11.95;;;5.97;;
3052;SDS011;1536;51.098;6.414;2024-03-25T05:49:36;11.40;;;4.80;;
3052;SDS011;1536;51.098;6.414;2024-03-25T05:52:04;11.70;;;5.87;;
3052;SDS011;1536;51.098;6.414;2024-03-25T05:54:30;8.50;;;5.30;;
3052;SDS011;1536;51.098;6.414;2024-03-25T05:56:56;9.33;;;5.33;;
3052;SDS011;1536;51.098;6.414;2024-03-25T05:59:22;9.43;;;6.60;;
3052;SDS011;1536;51.098;6.414;2024-03-25T06:01:48;7.50;;;5.27;;
3052;SDS011;1536;51.098;6.414;2024-03-25T06:04:14;5.87;;;5.27;;
3052;SDS011;1536;51.098;6.414;2024-03-25T06:06:39;13.27;;;5.40;;
3052;SDS011;1536;51.098;6.414;2024-03-25T06:09:07;11.00;;;6.20;;
3052;SDS011;1536;51.098;6.414;2024-03-25T06:11:33;10.70;;;5.70;;
3052;SDS011;1536;51.098;6.414;2024-03-25T06:13:59;8.95;;;6.03;;
3052;SDS011;1536;51.098;6.414;2024-03-25T06:16:24;7.00;;;5.37;;
3052;SDS011;1536;51.098;6.414;2024-03-25T06:18:50;11.30;;;5.80;;
3052;SDS011;1536;51.098;6.414;2024-03-25T06:21:16;9.90;;;5.40;;
3052;SDS011;1536;51.098;6.414;2024-03-25T06:23:42;9.50;;;5.90;;
3052;SDS011;1536;51.098;6.414;2024-03-25T06:26:09;9.13;;;5.50;;
3052;SDS011;1536;51.098;6.414;2024-03-25T06:28:35;11.38;;;5.93;;
3052;SDS011;1536;51.098;6.414;2024-03-25T06:31:01;10.27;;;6.40;;
3052;SDS011;1536;51.098;6.414;2024-03-25T06:33:45;13.85;;;5.43;;
3052;SDS011;1536;51.098;6.414;2024-03-25T06:36:29;9.98;;;5.55;;
3052;SDS011;1536;51.098;6.414;2024-03-25T06:38:55;17.03;;;6.57;;
3052;SDS011;1536;51.098;6.414;2024-03-25T06:41:22;8.10;;;6.10;;
3052;SDS011;1536;51.098;6.414;2024-03-25T06:43:48;11.57;;;5.22;;
3052;SDS011;1536;51.098;6.414;2024-03-25T06:46:14;9.00;;;5.73;;
3052;SDS011;1536;51.098;6.414;2024-03-25T06:48:40;9.93;;;5.90;;
3052;SDS011;1536;51.098;6.414;2024-03-25T06:51:06;10.37;;;6.37;;
3052;SDS011;1536;51.098;6.414;2024-03-25T06:53:32;16.02;;;6.40;;
3052;SDS011;1536;51.098;6.414;2024-03-25T06:55:58;11.90;;;6.83;;
3052;SDS011;1536;51.098;6.414;2024-03-25T06:58:26;10.88;;;7.32;;
3052;SDS011;1536;51.098;6.414;2024-03-25T07:00:53;11.20;;;7.63;;
3052;SDS011;1536;51.098;6.414;2024-03-25T07:03:20;13.98;;;7.68;;
3052;SDS011;1536;51.098;6.414;2024-03-25T07:05:47;15.50;;;7.60;;
3052;SDS011;1536;51.098;6.414;2024-03-25T07:08:14;13.80;;;7.43;;
3052;SDS011;1536;51.098;6.414;2024-03-25T07:10:41;10.27;;;6.75;;
3052;SDS011;1536;51.098;6.414;2024-03-25T07:13:07;11.30;;;6.22;;
3052;SDS011;1536;51.098;6.414;2024-03-25T07:15:34;14.65;;;6.55;;
3052;SDS011;1536;51.098;6.414;2024-03-25T07:18:00;13.07;;;6.60;;
3052;SDS011;1536;51.098;6.414;2024-03-25T07:20:27;12.23;;;6.47;;
3052;SDS011;1536;51.098;6.414;2024-03-25T07:22:53;9.63;;;6.78;;
3052;SDS011;1536;51.098;6.414;2024-03-25T07:25:19;12.48;;;7.50;;
3052;SDS011;1536;51.098;6.414;2024-03-25T07:27:45;13.60;;;7.10;;
3052;SDS011;1536;51.098;6.414;2024-03-25T07:30:11;11.57;;;8.30;;
3052;SDS011;1536;51.098;6.414;2024-03-25T07:32:38;13.55;;;8.18;;
3052;SDS011;1536;51.098;6.414;2024-03-25T07:35:05;14.13;;;7.38;;
3052;SDS011;1536;51.098;6.414;2024-03-25T07:37:31;21.95;;;8.65;;
3052;SDS011;1536;51.098;6.414;2024-03-25T07:39:57;26.40;;;9.80;;
3052;SDS011;1536;51.098;6.414;2024-03-25T07:42:23;18.47;;;10.77;;
3052;SDS011;1536;51.098;6.414;2024-03-25T07:44:48;17.57;;;9.73;;
3052;SDS011;1536;51.098;6.414;2024-03-25T07:47:14;15.30;;;9.77;;
3052;SDS011;1536;51.098;6.414;2024-03-25T07:49:42;17.00;;;9.53;;
3052;SDS011;1536;51.098;6.414;2024-03-25T07:52:08;14.02;;;9.32;;
3052;SDS011;1536;51.098;6.414;2024-03-25T07:54:33;27.33;;;10.47;;
3052;SDS011;1536;51.098;6.414;2024-03-25T07:56:59;17.07;;;10.80;;
3052;SDS011;1536;51.098;6.414;2024-03-25T07:59:25;19.03;;;11.00;;
3052;SDS011;1536;51.098;6.414;2024-03-25T08:01:51;22.43;;;11.87;;
3052;SDS011;1536;51.098;6.414;2024-03-25T08:04:17;17.73;;;11.27;;
3052;SDS011;1536;51.098;6.414;2024-03-25T08:06:44;25.50;;;11.47;;
3052;SDS011;1536;51.098;6.414;2024-03-25T08:09:10;23.15;;;12.75;;
3052;SDS011;1536;51.098;6.414;2024-03-25T08:11:36;17.93;;;10.90;;
3052;SDS011;1536;51.098;6.414;2024-03-25T08:14:02;26.63;;;12.43;;
3052;SDS011;1536;51.098;6.414;2024-03-25T08:16:28;18.60;;;13.00;;
3052;SDS011;1536;51.098;6.414;2024-03-25T08:18:54;20.40;;;12.37;;
3052;SDS011;1536;51.098;6.414;2024-03-25T08:21:20;24.38;;;12.85;;
3052;SDS011;1536;51.098;6.414;2024-03-25T08:23:47;22.13;;;13.90;;
3052;SDS011;1536;51.098;6.414;2024-03-25T08:26:13;23.98;;;14.63;;
3052;SDS011;1536;51.098;6.414;2024-03-25T08:28:39;28.03;;;14.17;;
3052;SDS011;1536;51.098;6.414;2024-03-25T08:31:05;20.83;;;13.13;;
3052;SDS011;1536;51.098;6.414;2024-03-25T08:33:31;23.80;;;14.68;;
3052;SDS011;1536;51.098;6.414;2024-03-25T08:35:57;22.13;;;13.30;;
3052;SDS011;1536;51.098;6.414;2024-03-25T08:38:25;18.15;;;12.20;;
3052;SDS011;1536;51.098;6.414;2024-03-25T08:40:53;21.45;;;12.73;;
3052;SDS011;1536;51.098;6.414;2024-03-25T08:43:19;19.95;;;12.95;;
3052;SDS011;1536;51.098;6.414;2024-03-25T08:45:45;20.93;;;11.93;;
3052;SDS011;1536;51.098;6.414;2024-03-25T08:48:11;22.27;;;12.00;;
3052;SDS011;1536;51.098;6.414;2024-03-25T08:50:37;21.30;;;13.47;;
3052;SDS011;1536;51.098;6.414;2024-03-25T08:53:03;24.30;;;13.00;;
3052;SDS011;1536;51.098;6.414;2024-03-25T08:55:29;18.88;;;11.10;;
3052;SDS011;1536;51.098;6.414;2024-03-25T08:57:57;24.48;;;13.05;;
3052;SDS011;1536;51.098;6.414;2024-03-25T09:00:23;25.05;;;12.70;;
3052;SDS011;1536;51.098;6.414;2024-03-25T09:02:50;22.27;;;12.32;;
3052;SDS011;1536;51.098;6.414;2024-03-25T09:05:16;22.10;;;12.90;;
3052;SDS011;1536;51.098;6.414;2024-03-25T09:07:43;30.33;;;13.38;;
3052;SDS011;1536;51.098;6.414;2024-03-25T09:10:09;21.67;;;11.27;;
3052;SDS011;1536;51.098;6.414;2024-03-25T09:12:54;22.50;;;12.32;;
3052;SDS011;1536;51.098;6.414;2024-03-25T09:15:21;17.50;;;11.80;;
3052;SDS011;1536;51.098;6.414;2024-03-25T09:17:47;19.23;;;13.30;;
3052;SDS011;1536;51.098;6.414;2024-03-25T09:20:13;23.27;;;11.90;;
3052;SDS011;1536;51.098;6.414;2024-03-25T09:22:41;19.90;;;12.48;;
3052;SDS011;1536;51.098;6.414;2024-03-25T09:25:07;23.92;;;11.80;;
3052;SDS011;1536;51.098;6.414;2024-03-25T09:27:33;24.65;;;12.38;;
3052;SDS011;1536;51.098;6.414;2024-03-25T09:29:59;22.02;;;12.75;;
3052;SDS011;1536;51.098;6.414;2024-03-25T09:32:27;19.97;;;11.93;;
3052;SDS011;1536;51.098;6.414;2024-03-25T09:34:53;19.27;;;10.65;;
3052;SDS011;1536;51.098;6.414;2024-03-25T09:37:19;22.67;;;11.20;;
3052;SDS011;1536;51.098;6.414;2024-03-25T09:39:45;19.93;;;11.80;;
3052;SDS011;1536;51.098;6.414;2024-03-25T09:42:12;18.35;;;11.90;;
3052;SDS011;1536;51.098;6.414;2024-03-25T09:44:40;19.27;;;10.35;;
3052;SDS011;1536;51.098;6.414;2024-03-25T09:47:06;20.48;;;10.38;;
3052;SDS011;1536;51.098;6.414;2024-03-25T09:49:34;17.90;;;10.07;;
3052;SDS011;1536;51.098;6.414;2024-03-25T09:52:02;21.45;;;10.40;;
3052;SDS011;1536;51.098;6.414;2024-03-25T09:54:28;17.30;;;9.75;;
3052;SDS011;1536;51.098;6.414;2024-03-25T09:56:54;17.00;;;9.50;;
3052;SDS011;1536;51.098;6.414;2024-03-25T09:59:21;30.00;;;12.40;;
3052;SDS011;1536;51.098;6.414;2024-03-25T10:01:46;15.93;;;10.33;;
3052;SDS011;1536;51.098;6.414;2024-03-25T10:04:12;25.83;;;11.00;;
3052;SDS011;1536;51.098;6.414;2024-03-25T10:06:40;17.23;;;10.63;;
3052;SDS011;1536;51.098;6.414;2024-03-25T10:09:06;15.82;;;10.82;;
3052;SDS011;1536;51.098;6.414;2024-03-25T10:11:32;17.37;;;9.50;;
3052;SDS011;1536;51.098;6.414;2024-03-25T10:14:00;14.27;;;8.40;;
3052;SDS011;1536;51.098;6.414;2024-03-25T10:16:26;15.83;;;8.63;;
3052;SDS011;1536;51.098;6.414;2024-03-25T10:18:52;16.33;;;9.30;;
3052;SDS011;1536;51.098;6.414;2024-03-25T10:21:19;15.53;;;8.80;;
3052;SDS011;1536;51.098;6.414;2024-03-25T10:23:47;12.13;;;8.90;;
3052;SDS011;1536;51.098;6.414;2024-03-25T10:26:26;12.20;;;9.57;;
3052;SDS011;1536;51.098;6.414;2024-03-25T10:28:59;14.00;;;8.77;;
3052;SDS011;1536;51.098;6.414;2024-03-25T10:31:29;11.37;;;7.33;;
3052;SDS011;1536;51.098;6.414;2024-03-25T10:33:55;17.13;;;10.00;;
3052;SDS011;1536;51.098;6.414;2024-03-25T10:36:21;22.20;;;9.17;;
3052;SDS011;1536;51.098;6.414;2024-03-25T10:38:49;15.00;;;7.45;;
3052;SDS011;1536;51.098;6.414;2024-03-25T10:41:19;14.73;;;6.63;;
3052;SDS011;1536;51.098;6.414;2024-03-25T10:43:47;14.37;;;7.40;;
3052;SDS011;1536;51.098;6.414;2024-03-25T10:46:17;13.20;;;6.87;;
3052;SDS011;1536;51.098;6.414;2024-03-25T10:48:47;13.90;;;8.20;;
3052;SDS011;1536;51.098;6.414;2024-03-25T10:51:19;19.60;;;7.60;;
3052;SDS011;1536;51.098;6.414;2024-03-25T10:53:46;11.83;;;6.47;;
3052;SDS011;1536;51.098;6.414;2024-03-25T10:56:17;10.17;;;6.33;;
3052;SDS011;1536;51.098;6.414;2024-03-25T10:58:45;9.70;;;5.13;;
3052;SDS011;1536;51.098;6.414;2024-03-25T11:01:12;8.23;;;5.37;;
3052;SDS011;1536;51.098;6.414;2024-03-25T11:03:38;10.80;;;5.00;;
3052;SDS011;1536;51.098;6.414;2024-03-25T11:06:05;16.63;;;6.40;;
3052;SDS011;1536;51.098;6.414;2024-03-25T11:08:31;8.73;;;4.70;;
3052;SDS011;1536;51.098;6.414;2024-03-25T11:10:59;7.87;;;4.30;;
3052;SDS011;1536;51.098;6.414;2024-03-25T11:13:26;6.90;;;4.20;;
3052;SDS011;1536;51.098;6.414;2024-03-25T11:15:53;5.73;;;3.90;;
3052;SDS011;1536;51.098;6.414;2024-03-25T11:18:22;6.93;;;4.70;;
3052;SDS011;1536;51.098;6.414;2024-03-25T11:20:58;10.50;;;4.20;;
3052;SDS011;1536;51.098;6.414;2024-03-25T11:23:25;6.40;;;3.70;;
3052;SDS011;1536;51.098;6.414;2024-03-25T11:25:54;11.37;;;4.47;;
3052;SDS011;1536;51.098;6.414;2024-03-25T11:28:27;8.97;;;3.90;;
3052;SDS011;1536;51.098;6.414;2024-03-25T11:30:54;11.53;;;3.70;;
3052;SDS011;1536;51.098;6.414;2024-03-25T11:33:21;8.80;;;3.57;;
3052;SDS011;1536;51.098;6.414;2024-03-25T11:35:47;8.40;;;3.40;;
3052;SDS011;1536;51.098;6.414;2024-03-25T11:38:13;5.50;;;3.20;;
3052;SDS011;1536;51.098;6.414;2024-03-25T11:40:40;8.03;;;3.07;;
3052;SDS011;1536;51.098;6.414;2024-03-25T11:43:08;4.73;;;3.07;;
3052;SDS011;1536;51.098;6.414;2024-03-25T11:45:36;6.60;;;2.97;;
3052;SDS011;1536;51.098;6.414;2024-03-25T11:48:02;8.33;;;4.00;;
3052;SDS011;1536;51.098;6.414;2024-03-25T11:50:28;5.20;;;2.87;;
3052;SDS011;1536;51.098;6.414;2024-03-25T11:52:54;5.80;;;2.67;;
3052;SDS011;1536;51.098;6.414;2024-03-25T11:55:20;6.83;;;3.27;;
3052;SDS011;1536;51.098;6.414;2024-03-25T11:57:46;4.17;;;2.90;;
3052;SDS011;1536;51.098;6.414;2024-03-25T12:00:19;8.47;;;3.40;;
3052;SDS011;1536;51.098;6.414;2024-03-25T12:02:47;5.77;;;3.00;;
3052;SDS011;1536;51.098;6.414;2024-03-25T12:05:13;8.10;;;3.77;;
3052;SDS011;1536;51.098;6.414;2024-03-25T12:07:39;5.37;;;3.03;;
3052;SDS011;1536;51.098;6.414;2024-03-25T12:10:05;7.77;;;3.43;;
3052;SDS011;1536;51.098;6.414;2024-03-25T12:12:58;11.70;;;3.67;;
3052;SDS011;1536;51.098;6.414;2024-03-25T12:15:24;7.73;;;3.60;;
3052;SDS011;1536;51.098;6.414;2024-03-25T12:17:54;5.50;;;2.97;;
3052;SDS011;1536;51.098;6.414;2024-03-25T12:20:20;6.70;;;3.30;;
3052;SDS011;1536;51.098;6.414;2024-03-25T12:22:48;5.47;;;3.37;;
3052;SDS011;1536;51.098;6.414;2024-03-25T12:25:14;9.93;;;2.97;;
3052;SDS011;1536;51.098;6.414;2024-03-25T12:27:40;4.80;;;2.60;;
3052;SDS011;1536;51.098;6.414;2024-03-25T12:30:07;8.20;;;3.20;;
3052;SDS011;1536;51.098;6.414;2024-03-25T12:32:37;4.87;;;2.77;;
3052;SDS011;1536;51.098;6.414;2024-03-25T12:35:07;6.27;;;3.20;;
3052;SDS011;1536;51.098;6.414;2024-03-25T12:37:33;6.57;;;3.63;;
3052;SDS011;1536;51.098;6.414;2024-03-25T12:40:01;10.20;;;2.93;;
3052;SDS011;1536;51.098;6.414;2024-03-25T12:42:27;5.67;;;2.30;;
3052;SDS011;1536;51.098;6.414;2024-03-25T12:44:53;5.10;;;3.37;;
3052;SDS011;1536;51.098;6.414;2024-03-25T12:47:19;6.07;;;2.87;;
3052;SDS011;1536;51.098;6.414;2024-03-25T12:49:45;6.87;;;3.07;;
3052;SDS011;1536;51.098;6.414;2024-03-25T12:52:12;4.10;;;3.00;;
3052;SDS011;1536;51.098;6.414;2024-03-25T12:54:38;6.23;;;2.70;;
3052;SDS011;1536;51.098;6.414;2024-03-25T12:57:04;6.40;;;2.77;;
3052;SDS011;1536;51.098;6.414;2024-03-25T12:59:30;7.37;;;3.50;;
3052;SDS011;1536;51.098;6.414;2024-03-25T13:01:56;6.60;;;3.10;;
3052;SDS011;1536;51.098;6.414;2024-03-25T13:04:22;6.07;;;3.00;;
3052;SDS011;1536;51.098;6.414;2024-03-25T13:06:48;3.63;;;3.07;;
3052;SDS011;1536;51.098;6.414;2024-03-25T13:09:15;6.10;;;2.60;;
3052;SDS011;1536;51.098;6.414;2024-03-25T13:11:41;5.53;;;2.67;;
3052;SDS011;1536;51.098;6.414;2024-03-25T13:14:10;7.70;;;3.07;;
3052;SDS011;1536;51.098;6.414;2024-03-25T13:16:37;9.87;;;3.13;;
3052;SDS011;1536;51.098;6.414;2024-03-25T13:19:03;4.67;;;2.63;;
3052;SDS011;1536;51.098;6.414;2024-03-25T13:21:29;3.17;;;2.30;;
3052;SDS011;1536;51.098;6.414;2024-03-25T13:23:55;3.50;;;2.60;;
3052;SDS011;1536;51.098;6.414;2024-03-25T13:26:22;3.37;;;2.60;;
3052;SDS011;1536;51.098;6.414;2024-03-25T13:28:48;4.77;;;2.10;;
3052;SDS011;1536;51.098;6.414;2024-03-25T13:31:14;3.47;;;2.50;;
3052;SDS011;1536;51.098;6.414;2024-03-25T13:33:40;3.17;;;2.10;;
3052;SDS011;1536;51.098;6.414;2024-03-25T13:36:06;3.33;;;2.40;;
3052;SDS011;1536;51.098;6.414;2024-03-25T13:38:33;2.60;;;2.30;;
3052;SDS011;1536;51.098;6.414;2024-03-25T13:40:59;5.33;;;2.27;;
3052;SDS011;1536;51.098;6.414;2024-03-25T13:43:26;3.17;;;2.37;;
3052;SDS011;1536;51.098;6.414;2024-03-25T13:45:52;3.73;;;2.57;;
3052;SDS011;1536;51.098;6.414;2024-03-25T13:48:18;3.73;;;2.67;;
3052;SDS011;1536;51.098;6.414;2024-03-25T13:50:44;5.93;;;2.47;;
3052;SDS011;1536;51.098;6.414;2024-03-25T13:53:10;5.57;;;2.43;;
3052;SDS011;1536;51.098;6.414;2024-03-25T13:55:36;6.93;;;2.80;;
3052;SDS011;1536;51.098;6.414;2024-03-25T13:58:02;4.90;;;2.77;;
3052;SDS011;1536;51.098;6.414;2024-03-25T14:00:29;3.70;;;2.93;;
3052;SDS011;1536;51.098;6.414;2024-03-25T14:02:55;4.40;;;2.63;;
3052;SDS011;1536;51.098;6.414;2024-03-25T14:05:21;4.33;;;3.00;;
3052;SDS011;1536;51.098;6.414;2024-03-25T14:07:48;8.20;;;2.90;;
3052;SDS011;1536;51.098;6.414;2024-03-25T14:10:14;3.30;;;2.40;;
3052;SDS011;1536;51.098;6.414;2024-03-25T14:12:40;6.77;;;3.33;;
3052;SDS011;1536;51.098;6.414;2024-03-25T14:15:06;2.83;;;2.37;;
3052;SDS011;1536;51.098;6.414;2024-03-25T14:17:34;4.77;;;2.97;;
3052;SDS011;1536;51.098;6.414;2024-03-25T14:20:00;6.70;;;3.20;;
3052;SDS011;1536;51.098;6.414;2024-03-25T14:22:26;8.70;;;3.20;;
3052;SDS011;1536;51.098;6.414;2024-03-25T14:24:52;8.30;;;3.10;;
3052;SDS011;1536;51.098;6.414;2024-03-25T14:27:18;2.37;;;2.17;;
3052;SDS011;1536;51.098;6.414;2024-03-25T14:29:44;7.40;;;2.90;;
3052;SDS011;1536;51.098;6.414;2024-03-25T14:32:10;9.07;;;3.10;;
3052;SDS011;1536;51.098;6.414;2024-03-25T14:34:37;6.87;;;3.40;;
3052;SDS011;1536;51.098;6.414;2024-03-25T14:37:03;4.30;;;2.90;;
3052;SDS011;1536;51.098;6.414;2024-03-25T14:39:29;6.10;;;3.30;;
3052;SDS011;1536;51.098;6.414;2024-03-25T14:41:55;4.73;;;3.17;;
3052;SDS011;1536;51.098;6.414;2024-03-25T14:44:21;3.53;;;2.80;;
3052;SDS011;1536;51.098;6.414;2024-03-25T14:46:47;3.77;;;2.67;;
3052;SDS011;1536;51.098;6.414;2024-03-25T14:49:13;5.00;;;3.10;;
3052;SDS011;1536;51.098;6.414;2024-03-25T14:51:40;6.10;;;3.23;;
3052;SDS011;1536;51.098;6.414;2024-03-25T14:54:06;5.40;;;3.10;;
3052;SDS011;1536;51.098;6.414;2024-03-25T14:56:32;4.37;;;2.90;;
3052;SDS011;1536;51.098;6.414;2024-03-25T14:58:58;3.13;;;2.73;;
3052;SDS011;1536;51.098;6.414;2024-03-25T15:01:24;4.07;;;2.20;;
3052;SDS011;1536;51.098;6.414;2024-03-25T15:03:50;7.90;;;2.80;;